createdAt,value
2018-06-12T00:00:50.277Z,100.0
2018-06-12T00:02:50.422Z,100.0
2018-06-12T00:04:50.711Z,100.0
2018-06-12T00:06:50.936Z,100.0
2018-06-12T00:08:50.115Z,100.0
2018-06-12T00:10:50.262Z,100.0
2018-06-12T00:12:50.384Z,100.0
2018-06-12T00:14:50.524Z,100.0
2018-06-12T00:16:50.810Z,100.0
2018-06-12T00:18:50.932Z,100.0
2018-06-12T00:20:50.067Z,100.0
2018-06-12T00:24:50.931Z,100.0
2018-06-12T00:26:50.178Z,100.0
2018-06-12T00:28:50.270Z,100.0
2018-06-12T00:30:50.481Z,100.0
2018-06-12T00:32:50.577Z,100.0
2018-06-12T00:34:50.910Z,100.0
2018-06-12T00:36:50.204Z,100.0
2018-06-12T00:38:50.319Z,100.0
2018-06-12T00:40:50.491Z,100.0
2018-06-12T00:42:50.666Z,100.0
2018-06-12T00:44:50.788Z,100.0
2018-06-12T00:46:50.145Z,100.0
2018-06-12T00:48:50.259Z,100.0
2018-06-12T00:50:50.414Z,100.0
2018-06-12T00:52:50.567Z,100.0
2018-06-12T00:54:50.694Z,100.0
2018-06-12T00:56:50.971Z,100.0
2018-06-12T00:58:50.854Z,100.0
2018-06-12T01:00:50.127Z,100.0
2018-06-12T01:02:50.339Z,100.0
2018-06-12T01:04:50.545Z,100.0
2018-06-12T01:06:50.869Z,100.0
2018-06-12T01:08:49.976Z,100.0
2018-06-12T01:10:50.170Z,100.0
2018-06-12T01:12:50.438Z,100.0
2018-06-12T01:14:50.593Z,100.0
2018-06-12T01:16:50.892Z,100.0
2018-06-12T01:18:50.017Z,100.0
2018-06-12T01:20:50.127Z,100.0
2018-06-12T01:22:50.213Z,100.0
2018-06-12T01:24:50.351Z,100.0
2018-06-12T01:26:50.608Z,100.0
2018-06-12T01:28:50.763Z,100.0
2018-06-12T01:30:50.918Z,100.0
2018-06-12T01:32:50.123Z,100.0
2018-06-12T01:34:50.518Z,100.0
2018-06-12T01:36:50.776Z,100.0
2018-06-12T01:38:50.939Z,100.0
2018-06-12T01:40:50.050Z,100.0
2018-06-12T01:42:50.136Z,100.0
2018-06-12T01:44:50.219Z,100.0
2018-06-12T01:46:50.551Z,100.0
2018-06-12T01:48:50.858Z,100.0
2018-06-12T01:50:49.955Z,100.0
2018-06-12T01:52:50.144Z,100.0
2018-06-12T01:54:50.298Z,100.0
2018-06-12T01:56:50.663Z,100.0
2018-06-12T01:58:50.792Z,100.0
2018-06-12T02:00:50.939Z,100.0
2018-06-12T02:02:50.091Z,100.0
2018-06-12T02:04:50.403Z,100.0
2018-06-12T02:06:50.639Z,100.0
2018-06-12T02:08:50.502Z,100.0
2018-06-12T02:10:50.626Z,100.0
2018-06-12T02:12:50.769Z,100.0
2018-06-12T02:14:50.898Z,100.0
2018-06-12T02:16:50.153Z,99.4
2018-06-12T02:18:50.281Z,100.0
2018-06-12T02:20:50.443Z,98.8
2018-06-12T02:22:50.613Z,98.4
2018-06-12T02:24:50.851Z,99.0
2018-06-12T02:26:50.161Z,98.8
2018-06-12T02:28:50.289Z,99.1
2018-06-12T02:30:50.402Z,100.0
2018-06-12T02:32:50.539Z,99.7
2018-06-12T02:34:50.034Z,99.8
2018-06-12T02:36:50.302Z,97.9
2018-06-12T02:38:50.465Z,98.8
2018-06-12T02:40:50.628Z,97.9
2018-06-12T02:42:50.771Z,98.0
2018-06-12T02:44:50.889Z,96.2
2018-06-12T02:46:50.194Z,94.8
2018-06-12T02:48:50.355Z,97.4
2018-06-12T02:50:50.521Z,96.7
2018-06-12T02:52:50.722Z,93.7
2018-06-12T02:54:50.882Z,94.7
2018-06-12T02:56:50.273Z,94.3
2018-06-12T02:58:50.575Z,95.7
2018-06-12T03:00:50.767Z,96.5
2018-06-12T03:02:50.970Z,95.7
2018-06-12T03:04:50.361Z,95.1
2018-06-12T03:06:50.754Z,95.3
2018-06-12T03:08:50.902Z,95.8
2018-06-12T03:10:50.058Z,94.7
2018-06-12T03:12:50.220Z,96.1
2018-06-12T03:14:50.401Z,96.1
2018-06-12T03:16:50.654Z,96.0
2018-06-12T03:18:50.797Z,95.8
2018-06-12T03:20:50.051Z,97.1
2018-06-12T03:22:50.003Z,96.2
2018-06-12T03:24:50.322Z,96.4
2018-06-12T03:26:50.616Z,96.4
2018-06-12T03:28:50.739Z,96.4
2018-06-12T03:30:50.867Z,96.5
2018-06-12T03:32:50.038Z,96.9
2018-06-12T03:34:50.367Z,98.3
2018-06-12T03:36:50.748Z,97.5
2018-06-12T03:38:50.979Z,98.8
2018-06-12T03:40:50.100Z,98.8
2018-06-12T03:42:50.247Z,96.7
2018-06-12T03:44:50.397Z,96.4
2018-06-12T03:46:50.728Z,96.4
2018-06-12T03:48:50.883Z,95.8
2018-06-12T03:50:50.022Z,95.2
2018-06-12T03:52:50.229Z,97.4
2018-06-12T03:54:50.452Z,97.9
2018-06-12T03:56:50.764Z,96.4
2018-06-12T03:58:50.855Z,97.1
2018-06-12T04:00:50.008Z,95.7
2018-06-12T04:02:50.122Z,97.0
2018-06-12T04:04:50.405Z,97.1
2018-06-12T04:06:50.710Z,96.1
2018-06-12T04:08:50.858Z,96.3
2018-06-12T04:10:50.168Z,97.7
2018-06-12T04:12:50.341Z,96.0
2018-06-12T04:14:51.221Z,96.6
2018-06-12T04:16:50.519Z,96.7
2018-06-12T04:18:50.727Z,95.5
2018-06-12T04:20:50.976Z,96.1
2018-06-12T04:22:50.244Z,95.0
2018-06-12T04:24:50.358Z,95.9
2018-06-12T04:26:50.231Z,95.0
2018-06-12T04:28:50.327Z,95.2
2018-06-12T04:30:50.507Z,94.6
2018-06-12T04:32:50.605Z,94.8
2018-06-12T04:34:50.884Z,94.0
2018-06-12T04:36:50.147Z,93.5
2018-06-12T04:38:50.330Z,94.1
2018-06-12T04:40:50.529Z,94.5
2018-06-12T04:42:50.649Z,94.6
2018-06-12T04:44:50.731Z,92.7
2018-06-12T04:46:50.094Z,92.7
2018-06-12T04:48:50.172Z,93.0
2018-06-12T04:50:50.275Z,91.3
2018-06-12T04:52:50.499Z,93.2
2018-06-12T04:54:50.639Z,90.9
2018-06-12T04:56:50.005Z,91.2
2018-06-12T04:58:50.207Z,90.6
2018-06-12T05:00:50.362Z,89.2
2018-06-12T05:02:50.601Z,89.4
2018-06-12T05:04:50.894Z,89.8
2018-06-12T05:06:50.200Z,89.2
2018-06-12T05:08:50.349Z,88.6
2018-06-12T05:10:50.455Z,88.3
2018-06-12T05:12:50.591Z,87.1
2018-06-12T05:14:50.743Z,86.1
2018-06-12T05:16:49.990Z,86.9
2018-06-12T05:18:50.101Z,86.7
2018-06-12T05:20:50.252Z,88.1
2018-06-12T05:22:50.421Z,87.7
2018-06-12T05:24:50.552Z,86.1
2018-06-12T05:26:50.818Z,86.7
2018-06-12T05:28:50.988Z,87.3
2018-06-12T05:30:50.142Z,88.3
2018-06-12T05:32:50.319Z,88.5
2018-06-12T05:34:50.653Z,86.9
2018-06-12T05:36:50.469Z,86.6
2018-06-12T05:38:50.584Z,86.6
2018-06-12T05:40:50.717Z,87.1
2018-06-12T05:42:50.860Z,85.9
2018-06-12T05:44:50.016Z,87.5
2018-06-12T05:46:50.912Z,85.8
2018-06-12T05:48:50.099Z,86.3
2018-06-12T05:50:50.250Z,88.4
2018-06-12T05:52:50.386Z,88.4
2018-06-12T05:54:50.605Z,86.9
2018-06-12T05:56:50.856Z,86.5
2018-06-12T05:58:50.044Z,85.1
2018-06-12T06:00:50.214Z,85.4
2018-06-12T06:02:50.404Z,87.0
2018-06-12T06:04:50.828Z,86.5
2018-06-12T06:06:50.139Z,85.7
2018-06-12T06:08:50.425Z,84.2
2018-06-12T06:10:50.588Z,85.9
2018-06-12T06:12:50.719Z,85.8
2018-06-12T06:14:50.829Z,83.4
2018-06-12T06:16:50.052Z,83.3
2018-06-12T06:18:50.248Z,83.6
2018-06-12T06:20:50.365Z,83.4
2018-06-12T06:22:50.580Z,80.2
2018-06-12T06:24:50.784Z,80.9
2018-06-12T06:26:50.002Z,81.9
2018-06-12T06:28:50.116Z,81.8
2018-06-12T06:30:50.265Z,83.0
2018-06-12T06:32:50.381Z,81.0
2018-06-12T06:34:50.891Z,80.8
2018-06-12T06:36:50.139Z,80.5
2018-06-12T06:38:50.265Z,80.7
2018-06-12T06:40:50.429Z,80.1
2018-06-12T06:42:50.612Z,80.1
2018-06-12T06:44:50.713Z,79.0
2018-06-12T06:46:49.975Z,79.1
2018-06-12T06:48:50.161Z,80.4
2018-06-12T06:50:50.335Z,78.2
2018-06-12T06:52:50.491Z,79.1
2018-06-12T06:54:50.638Z,79.3
2018-06-12T06:56:50.864Z,78.9
2018-06-12T06:58:50.229Z,79.5
2018-06-12T07:00:50.388Z,79.5
2018-06-12T07:02:50.506Z,80.6
2018-06-12T07:04:50.851Z,79.8
2018-06-12T07:06:50.313Z,78.6
2018-06-12T07:08:50.747Z,78.3
2018-06-12T07:10:50.324Z,78.2
2018-06-12T07:12:50.466Z,78.1
2018-06-12T07:14:51.115Z,77.1
2018-06-12T07:16:50.365Z,79.8
2018-06-12T07:18:50.569Z,78.0
2018-06-12T07:20:50.878Z,75.4
2018-06-12T07:22:50.017Z,74.1
2018-06-12T07:24:50.183Z,75.2
2018-06-12T07:26:50.440Z,75.2
2018-06-12T07:28:50.607Z,75.8
2018-06-12T07:30:50.711Z,74.5
2018-06-12T07:32:50.901Z,76.2
2018-06-12T07:34:50.225Z,77.9
2018-06-12T07:36:50.441Z,74.0
2018-06-12T07:38:50.628Z,74.4
2018-06-12T07:40:50.783Z,75.4
2018-06-12T07:42:50.947Z,73.9
2018-06-12T07:44:50.064Z,72.8
2018-06-12T07:46:50.360Z,72.7
2018-06-12T07:48:50.520Z,72.2
2018-06-12T07:50:50.693Z,72.2
2018-06-12T07:52:50.866Z,71.8
2018-06-12T07:54:50.103Z,69.8
2018-06-12T07:56:50.344Z,71.3
2018-06-12T07:58:50.531Z,73.1
2018-06-12T08:00:50.786Z,71.8
2018-06-12T08:02:49.992Z,73.4
2018-06-12T08:04:50.317Z,73.9
2018-06-12T08:06:50.548Z,73.1
2018-06-12T08:08:50.666Z,73.3
2018-06-12T08:10:50.826Z,73.9
2018-06-12T08:12:50.631Z,72.9
2018-06-12T08:14:50.832Z,72.1
2018-06-12T08:16:50.150Z,71.9
2018-06-12T08:18:50.249Z,72.4
2018-06-12T08:20:50.424Z,69.7
2018-06-12T08:22:50.625Z,71.2
2018-06-12T08:24:50.765Z,69.6
2018-06-12T08:26:50.130Z,70.6
2018-06-12T08:28:50.273Z,70.5
2018-06-12T08:30:50.411Z,71.6
2018-06-12T08:32:50.480Z,71.1
2018-06-12T08:34:50.860Z,74.6
2018-06-12T08:36:50.189Z,75.3
2018-06-12T08:38:50.407Z,74.3
2018-06-12T08:40:50.934Z,77.1
2018-06-12T08:42:50.105Z,75.4
2018-06-12T08:44:50.262Z,77.5
2018-06-12T08:46:50.562Z,75.0
2018-06-12T08:48:50.767Z,75.2
2018-06-12T08:50:50.919Z,72.8
2018-06-12T08:52:50.016Z,72.1
2018-06-12T08:54:50.143Z,72.3
2018-06-12T08:56:50.475Z,73.4
2018-06-12T08:58:50.598Z,74.3
2018-06-12T09:00:50.707Z,73.6
2018-06-12T09:02:50.923Z,73.2
2018-06-12T09:04:50.237Z,72.9
2018-06-12T09:06:50.493Z,73.4
2018-06-12T09:08:50.584Z,72.5
2018-06-12T09:10:50.730Z,70.9
2018-06-12T09:12:50.890Z,72.4
2018-06-12T09:14:50.120Z,75.6
2018-06-12T09:16:50.521Z,75.3
2018-06-12T09:18:50.719Z,75.6
2018-06-12T09:20:50.979Z,70.6
2018-06-12T09:22:50.213Z,68.9
2018-06-12T09:24:50.432Z,69.1
2018-06-12T09:26:50.858Z,69.7
2018-06-12T09:28:49.993Z,65.1
2018-06-12T09:30:50.185Z,64.3
2018-06-12T09:32:50.393Z,69.5
2018-06-12T09:34:50.706Z,72.0
2018-06-12T09:36:50.886Z,72.1
2018-06-12T09:38:50.071Z,70.0
2018-06-12T09:40:50.289Z,68.7
2018-06-12T09:42:50.488Z,72.8
2018-06-12T09:44:50.140Z,73.1
2018-06-12T09:46:50.475Z,73.0
2018-06-12T09:48:50.724Z,70.8
2018-06-12T09:50:50.972Z,70.8
2018-06-12T09:52:50.125Z,69.2
2018-06-12T09:54:50.242Z,70.8
2018-06-12T09:56:50.520Z,68.8
2018-06-12T09:58:50.692Z,64.5
2018-06-12T10:00:50.913Z,65
2018-06-12T10:02:50.765Z,65
2018-06-12T10:04:50.160Z,64
2018-06-12T10:06:50.480Z,63
2018-06-12T10:08:50.637Z,62.5
2018-06-12T10:10:50.879Z,65.9
2018-06-12T10:12:50.019Z,65.9
2018-06-12T10:14:50.208Z,62
2018-06-12T10:16:50.558Z,63
2018-06-12T10:18:51.166Z,63
2018-06-12T10:20:50.368Z,64
2018-06-12T10:22:50.606Z,61
2018-06-12T10:24:50.721Z,62
2018-06-12T10:26:50.101Z,62
2018-06-12T10:28:50.213Z,62
2018-06-12T10:30:50.389Z,62.6
2018-06-12T10:32:50.574Z,64.3
2018-06-12T10:34:49.965Z,66.1
2018-06-12T10:36:50.248Z,66.9
2018-06-12T10:38:50.373Z,64.1
2018-06-12T10:40:50.537Z,63.4
2018-06-12T10:42:50.690Z,64.8
2018-06-12T10:44:50.824Z,65.0
2018-06-12T10:46:50.085Z,65.7
2018-06-12T10:48:50.224Z,63.3
2018-06-12T10:50:50.330Z,62.0
2018-06-12T10:52:50.540Z,61.7
2018-06-12T10:54:50.705Z,62
2018-06-12T10:56:50.085Z,62
2018-06-12T10:58:50.216Z,62
2018-06-12T11:00:50.318Z,61
2018-06-12T11:02:50.450Z,60.6
2018-06-12T11:04:50.889Z,60.2
2018-06-12T11:06:50.248Z,61
2018-06-12T11:08:50.454Z,61
2018-06-12T11:10:51.058Z,62
2018-06-12T11:12:50.293Z,60
2018-06-12T11:14:50.496Z,60
2018-06-12T11:16:50.784Z,59
2018-06-12T11:18:49.981Z,59
2018-06-12T11:20:50.934Z,60.0
2018-06-12T11:22:50.152Z,60.0
2018-06-12T11:24:50.312Z,59
2018-06-12T11:26:50.599Z,58
2018-06-12T11:28:50.830Z,58
2018-06-12T11:30:49.972Z,58
2018-06-12T11:32:50.136Z,59
2018-06-12T11:34:50.755Z,58
2018-06-12T11:36:50.014Z,58
2018-06-12T11:38:50.143Z,59
2018-06-12T11:40:50.276Z,58
2018-06-12T11:42:50.504Z,58
2018-06-12T11:44:50.674Z,59
2018-06-12T11:46:50.030Z,59.4
2018-06-12T11:48:50.148Z,59.8
2018-06-12T11:50:50.278Z,60.9
2018-06-12T11:52:50.391Z,59.2
2018-06-12T11:54:50.561Z,57.3
2018-06-12T11:56:50.903Z,58.1
2018-06-12T11:58:50.109Z,57
2018-06-12T12:00:50.220Z,57
2018-06-12T12:02:50.366Z,57
2018-06-12T12:04:50.784Z,57
2018-06-12T12:06:50.167Z,57
2018-06-12T12:08:50.409Z,58
2018-06-12T12:10:50.593Z,59
2018-06-12T12:12:50.842Z,59
2018-06-12T12:14:49.978Z,58
2018-06-12T12:16:50.529Z,57
2018-06-12T12:18:50.721Z,57
2018-06-12T12:20:50.896Z,57
2018-06-12T12:22:50.033Z,57
2018-06-12T12:24:50.121Z,58
2018-06-12T12:26:50.418Z,58
2018-06-12T12:28:50.608Z,60.8
2018-06-12T12:30:50.801Z,63.9
2018-06-12T12:32:50.022Z,60.9
2018-06-12T12:34:50.371Z,62.2
2018-06-12T12:36:50.660Z,61.8
2018-06-12T12:38:50.825Z,61.8
2018-06-12T12:40:50.973Z,61.8
2018-06-12T12:42:50.164Z,62.3
2018-06-12T12:44:50.348Z,62.6
2018-06-12T12:46:50.632Z,64.3
2018-06-12T12:48:50.807Z,61.4
2018-06-12T12:50:49.969Z,61.0
2018-06-12T12:52:50.146Z,61.0
2018-06-12T12:54:50.263Z,61.0
2018-06-12T12:56:50.558Z,59.8
2018-06-12T12:58:50.683Z,61.3
2018-06-12T13:00:50.859Z,64.2
2018-06-12T13:02:50.045Z,62.5
2018-06-12T13:04:50.283Z,64.2
2018-06-12T13:06:50.586Z,64.2
2018-06-12T13:08:50.773Z,67.5
2018-06-12T13:10:50.886Z,64.8
2018-06-12T13:12:50.124Z,64.8
2018-06-12T13:14:50.305Z,66.6
2018-06-12T13:16:50.589Z,65.2
2018-06-12T13:18:50.817Z,65.8
2018-06-12T13:20:50.940Z,65.7
2018-06-12T13:22:50.077Z,64.6
2018-06-12T13:24:50.190Z,66.1
2018-06-12T13:26:50.468Z,66.3
2018-06-12T13:28:50.621Z,62.7
2018-06-12T13:30:50.795Z,63.3
2018-06-12T13:32:49.999Z,60.4
2018-06-12T13:34:50.393Z,60.3
2018-06-12T13:36:50.655Z,60
2018-06-12T13:38:50.095Z,60
2018-06-12T13:40:50.219Z,60
2018-06-12T13:42:50.304Z,60
2018-06-12T13:44:50.638Z,60
2018-06-12T13:46:50.890Z,61
2018-06-12T13:48:50.134Z,60
2018-06-12T13:50:50.303Z,60
2018-06-12T13:52:50.438Z,59
2018-06-12T13:54:51.318Z,59
2018-06-12T13:56:50.606Z,59
2018-06-12T13:58:50.733Z,58
2018-06-12T14:00:50.870Z,58
2018-06-12T14:02:50.129Z,59
2018-06-12T14:04:50.545Z,59
2018-06-12T14:06:50.017Z,59
2018-06-12T14:08:50.154Z,59
2018-06-12T14:10:50.277Z,58
2018-06-12T14:12:50.385Z,58
2018-06-12T14:14:50.556Z,58
2018-06-12T14:16:50.790Z,59
2018-06-12T14:18:50.953Z,59
2018-06-12T14:20:50.094Z,59
2018-06-12T14:22:50.255Z,59
2018-06-12T14:24:50.367Z,59
2018-06-12T14:26:50.552Z,59
2018-06-12T14:28:50.645Z,58
2018-06-12T14:30:50.881Z,58
2018-06-12T14:32:49.972Z,58
2018-06-12T14:34:50.539Z,58
2018-06-12T14:36:50.727Z,58
2018-06-12T14:38:50.847Z,58
2018-06-12T14:40:49.990Z,58
2018-06-12T14:42:50.101Z,58
2018-06-12T14:44:50.272Z,58
2018-06-12T14:46:50.662Z,58
2018-06-12T14:48:50.850Z,57
2018-06-12T14:50:50.961Z,58
2018-06-12T14:52:50.077Z,58.2
2018-06-12T14:54:50.230Z,60.3
2018-06-12T14:56:50.443Z,60.2
2018-06-12T14:58:50.562Z,61.7
2018-06-12T15:00:50.732Z,61.4
2018-06-12T15:02:50.931Z,60.7
2018-06-12T15:04:50.296Z,61.1
2018-06-12T15:06:50.537Z,59.7
2018-06-12T15:08:50.702Z,59.5
2018-06-12T15:10:50.880Z,59.4
2018-06-12T15:12:50.961Z,59.6
2018-06-12T15:14:50.067Z,59
2018-06-12T15:16:50.319Z,60
2018-06-12T15:18:50.611Z,60
2018-06-12T15:20:50.766Z,60
2018-06-12T15:22:50.880Z,60
2018-06-12T15:24:50.049Z,59
2018-06-12T15:26:50.284Z,59
2018-06-12T15:28:50.438Z,59.9
2018-06-12T15:30:50.580Z,61.2
2018-06-12T15:32:50.741Z,62.7
2018-06-12T15:34:50.037Z,62.7
2018-06-12T15:36:50.304Z,62.5
2018-06-12T15:38:50.440Z,63.2
2018-06-12T15:40:50.569Z,64.3
2018-06-12T15:42:50.772Z,66.2
2018-06-12T15:44:50.980Z,64.3
2018-06-12T15:46:50.393Z,64.3
2018-06-12T15:48:50.636Z,63.5
2018-06-12T15:50:50.785Z,62.3
2018-06-12T15:52:50.940Z,63.8
2018-06-12T15:54:50.100Z,63.3
2018-06-12T15:56:50.281Z,63.5
2018-06-12T15:58:50.471Z,64.3
2018-06-12T16:00:50.728Z,64.1
2018-06-12T16:02:50.873Z,65.4
2018-06-12T16:04:50.253Z,64.8
2018-06-12T16:06:50.556Z,65.4
2018-06-12T16:08:50.911Z,65.2
2018-06-12T16:10:50.045Z,65.3
2018-06-12T16:12:50.203Z,63.1
2018-06-12T16:14:50.381Z,62
2018-06-12T16:16:50.730Z,62
2018-06-12T16:18:50.902Z,62
2018-06-12T16:20:50.359Z,62
2018-06-12T16:22:50.514Z,62
2018-06-12T16:24:50.601Z,62
2018-06-12T16:26:50.887Z,62
2018-06-12T16:28:50.238Z,62
2018-06-12T16:30:50.351Z,62
2018-06-12T16:32:50.559Z,62
2018-06-12T16:34:50.907Z,62
2018-06-12T16:36:50.138Z,62
2018-06-12T16:38:50.361Z,62
2018-06-12T16:40:50.529Z,62
2018-06-12T16:42:50.737Z,62
2018-06-12T16:44:50.946Z,62
2018-06-12T16:46:50.280Z,62
2018-06-12T16:48:50.398Z,65.1
2018-06-12T16:50:50.510Z,64.7
2018-06-12T16:52:50.747Z,64.5
2018-06-12T16:54:50.901Z,65.1
2018-06-12T16:56:50.396Z,65.1
2018-06-12T16:58:50.704Z,69.1
2018-06-12T17:00:50.848Z,69.3
2018-06-12T17:02:49.981Z,67.9
2018-06-12T17:04:50.294Z,68.8
2018-06-12T17:06:50.596Z,67.7
2018-06-12T17:08:50.800Z,67.6
2018-06-12T17:10:50.018Z,68.3
2018-06-12T17:12:50.248Z,67.0
2018-06-12T17:14:50.437Z,67.7
2018-06-12T17:16:50.799Z,69.2
2018-06-12T17:18:49.990Z,69.0
2018-06-12T17:20:50.167Z,68.5
2018-06-12T17:22:50.309Z,68.1
2018-06-12T17:24:50.462Z,67.8
2018-06-12T17:26:50.816Z,68.0
2018-06-12T17:28:49.980Z,68.0
2018-06-12T17:30:50.122Z,70.9
2018-06-12T17:32:50.289Z,70.4
2018-06-12T17:34:50.567Z,69.6
2018-06-12T17:36:50.864Z,71.2
2018-06-12T17:38:50.019Z,70.2
2018-06-12T17:40:50.243Z,71.1
2018-06-12T17:42:50.374Z,72.1
2018-06-12T17:44:50.563Z,70.6
2018-06-12T17:46:50.767Z,70.9
2018-06-12T17:48:50.937Z,70.7
2018-06-12T17:50:50.082Z,70.9
2018-06-12T17:52:50.382Z,71.9
2018-06-12T17:54:51.272Z,72.3
2018-06-12T17:56:50.641Z,71.2
2018-06-12T17:58:50.786Z,71.5
2018-06-12T18:00:50.005Z,70.7
2018-06-12T18:02:50.209Z,70.7
2018-06-12T18:04:50.589Z,72.6
2018-06-12T18:06:50.839Z,71.6
2018-06-12T18:08:49.979Z,70.4
2018-06-12T18:10:50.156Z,70.4
2018-06-12T18:12:50.259Z,71.1
2018-06-12T18:14:50.515Z,71.3
2018-06-12T18:16:50.800Z,70.2
2018-06-12T18:18:50.922Z,71.1
2018-06-12T18:20:50.093Z,70.8
2018-06-12T18:22:50.256Z,72.6
2018-06-12T18:24:51.495Z,72.0
2018-06-12T18:26:50.747Z,72.9
2018-06-12T18:28:50.911Z,72.8
2018-06-12T18:30:50.181Z,73.3
2018-06-12T18:32:50.404Z,72.3
2018-06-12T18:34:50.881Z,71.2
2018-06-12T18:36:50.198Z,71.2
2018-06-12T18:38:50.364Z,72.4
2018-06-12T18:40:50.469Z,72.3
2018-06-12T18:42:50.742Z,73.2
2018-06-12T18:44:50.929Z,73.0
2018-06-12T18:46:50.375Z,73.0
2018-06-12T18:48:50.586Z,73.0
2018-06-12T18:50:50.820Z,73.4
2018-06-12T18:52:50.949Z,73.2
2018-06-12T18:54:50.150Z,72.2
2018-06-12T18:56:50.337Z,73.2
2018-06-12T18:58:50.488Z,72.6
2018-06-12T19:00:50.645Z,72.7
2018-06-12T19:02:50.906Z,72.9
2018-06-12T19:04:50.198Z,75.1
2018-06-12T19:06:51.108Z,74.0
2018-06-12T19:08:50.311Z,72.8
2018-06-12T19:10:50.509Z,74.2
2018-06-12T19:12:50.749Z,72.4
2018-06-12T19:14:50.917Z,73.1
2018-06-12T19:16:50.255Z,72.9
2018-06-12T19:18:50.681Z,72.9
2018-06-12T19:20:50.851Z,73.6
2018-06-12T19:22:50.030Z,72.4
2018-06-12T19:24:50.177Z,72.8
2018-06-12T19:26:50.409Z,73.0
2018-06-12T19:28:50.540Z,72.1
2018-06-12T19:30:50.700Z,71.8
2018-06-12T19:32:50.912Z,72.9
2018-06-12T19:34:50.237Z,71.8
2018-06-12T19:36:50.558Z,72.8
2018-06-12T19:38:50.686Z,71.7
2018-06-12T19:40:50.883Z,72.1
2018-06-12T19:42:50.074Z,73.0
2018-06-12T19:44:50.213Z,72.3
2018-06-12T19:46:50.485Z,73.0
2018-06-12T19:48:50.949Z,73.2
2018-06-12T19:50:50.124Z,73.2
2018-06-12T19:52:50.342Z,72.7
2018-06-12T19:54:50.494Z,72.6
2018-06-12T19:56:50.831Z,73.4
2018-06-12T19:58:50.012Z,72.3
2018-06-12T20:00:50.188Z,74.8
2018-06-12T20:02:50.301Z,73.0
2018-06-12T20:04:50.832Z,73.8
2018-06-12T20:06:50.089Z,73.1
2018-06-12T20:08:50.264Z,74.3
2018-06-12T20:10:50.422Z,73.9
2018-06-12T20:12:50.575Z,74.8
2018-06-12T20:14:50.869Z,75.6
2018-06-12T20:16:50.159Z,74.8
2018-06-12T20:18:50.372Z,74.1
2018-06-12T20:20:50.579Z,74.0
2018-06-12T20:22:50.740Z,74.5
2018-06-12T20:24:51.273Z,75.8
2018-06-12T20:26:50.656Z,74.6
2018-06-12T20:28:50.852Z,75.8
2018-06-12T20:30:50.056Z,73.9
2018-06-12T20:32:50.157Z,74.1
2018-06-12T20:34:50.509Z,74.4
2018-06-12T20:36:50.785Z,74.1
2018-06-12T20:38:50.942Z,75.1
2018-06-12T20:40:50.199Z,74.3
2018-06-12T20:42:50.976Z,75.3
2018-06-12T20:44:50.191Z,75.0
2018-06-12T20:46:51.376Z,76.5
2018-06-12T20:48:50.729Z,75.6
2018-06-12T20:50:50.927Z,75.8
2018-06-12T20:52:50.304Z,73.5
2018-06-12T20:54:50.746Z,73.6
2018-06-12T20:56:50.014Z,72.8
2018-06-12T20:58:50.353Z,74.4
2018-06-12T21:00:50.541Z,72.3
2018-06-12T21:02:50.812Z,73.2
2018-06-12T21:04:50.467Z,71.3
2018-06-12T21:06:52.113Z,71.7
2018-06-12T21:08:50.382Z,71.0
2018-06-12T21:10:50.538Z,69.9
2018-06-12T21:12:51.160Z,71.1
2018-06-12T21:14:50.342Z,70.7
2018-06-12T21:16:50.677Z,71.5
2018-06-12T21:18:50.918Z,69.9
2018-06-12T21:20:50.032Z,71.2
2018-06-12T21:22:50.154Z,71.5
2018-06-12T21:24:50.367Z,72.0
2018-06-12T21:26:51.023Z,71.2
2018-06-12T21:28:50.215Z,71.7
2018-06-12T21:30:50.448Z,71.7
2018-06-12T21:32:50.707Z,71.2
2018-06-12T21:34:50.029Z,71.5
2018-06-12T21:36:50.336Z,73.0
2018-06-12T21:38:50.474Z,71.6
2018-06-12T21:40:50.683Z,73.1
2018-06-12T21:42:50.925Z,72.3
2018-06-12T21:44:50.107Z,71.9
2018-06-12T21:46:50.378Z,72.0
2018-06-12T21:48:50.533Z,72.5
2018-06-12T21:50:50.681Z,72.6
2018-06-12T21:52:50.861Z,71.8
2018-06-12T21:54:49.967Z,73.8
2018-06-12T21:56:50.307Z,73.8
2018-06-12T21:58:50.470Z,73.1
2018-06-12T22:00:50.712Z,72.6
2018-06-12T22:02:50.849Z,73.9
2018-06-12T22:04:50.858Z,73.1
2018-06-12T22:06:50.144Z,73.0
2018-06-12T22:08:50.425Z,73.9
2018-06-12T22:10:50.583Z,73.1
2018-06-12T22:12:50.773Z,74.1
2018-06-12T22:14:50.940Z,74.1
2018-06-12T22:16:50.179Z,73.2
2018-06-12T22:18:50.365Z,72.8
2018-06-12T22:20:50.457Z,72.7
2018-06-12T22:22:50.593Z,73.3
2018-06-12T22:24:50.762Z,74.0
2018-06-12T22:26:50.054Z,73.9
2018-06-12T22:28:50.231Z,73.5
2018-06-12T22:30:50.412Z,73.7
2018-06-12T22:32:50.573Z,73.6
2018-06-12T22:34:50.086Z,73.9
2018-06-12T22:36:50.342Z,74.2
2018-06-12T22:38:50.504Z,74.5
2018-06-12T22:40:50.722Z,72.9
2018-06-12T22:42:50.153Z,73.2
2018-06-12T22:44:50.388Z,74.1
2018-06-12T22:46:50.698Z,74.1
2018-06-12T22:48:50.910Z,74.5
2018-06-12T22:50:50.095Z,73.4
2018-06-12T22:52:50.256Z,75.0
2018-06-12T22:54:50.432Z,74.0
2018-06-12T22:56:50.708Z,73.9
2018-06-12T22:58:50.842Z,75.1
2018-06-12T23:00:50.034Z,74.7
2018-06-12T23:02:50.335Z,74.1
2018-06-12T23:04:50.724Z,73.8
2018-06-12T23:06:50.120Z,74.4
2018-06-12T23:08:50.309Z,73.5
2018-06-12T23:10:50.461Z,74.7
2018-06-12T23:12:50.611Z,73.4
2018-06-12T23:14:50.817Z,73.4
2018-06-12T23:16:50.905Z,73.7
2018-06-12T23:18:50.138Z,74.5
2018-06-12T23:20:50.279Z,74.5
2018-06-12T23:22:50.510Z,72.8
2018-06-12T23:24:50.706Z,73.5
2018-06-12T23:26:50.030Z,73.4
2018-06-12T23:28:50.204Z,73.8
2018-06-12T23:30:50.375Z,74.0
2018-06-12T23:32:50.561Z,73.2
2018-06-12T23:34:50.873Z,72.6
2018-06-12T23:36:50.208Z,73.6
2018-06-12T23:38:50.395Z,75.4
2018-06-12T23:40:50.574Z,72.1
2018-06-12T23:42:50.729Z,73.9
2018-06-12T23:44:50.897Z,73.3
2018-06-12T23:46:50.201Z,73.4
2018-06-12T23:48:50.348Z,73.7
2018-06-12T23:50:50.531Z,71.9
2018-06-12T23:52:50.660Z,72.9
2018-06-12T23:54:50.806Z,71.8
2018-06-12T23:56:50.199Z,72.4
2018-06-12T23:58:50.543Z,72.9
